• Join FlightAware (Why Join?)
  • Login
  • US Flag 
Trick or treat! (Boo!!) 
03:42AM EDT


 

Airport Tracker/Info


-or-


 

Live Flight TrackerFlight Track Log ✈ ASQ6185 ✈ 19-Apr-2013 ✈ KRDU - KIAD

Flight Track Log - Related Links

Times and Time Zones

All times are in EDT time to prevent confusion due to time zone crossing. See the ASQ6185 flight status page for this flight to view local times or setup timezone preferences in your user account.

Time Position Orientation Groundspeed Altitude Reporting Facility
EDT Latitude Longitude Course Direction KTS MPH feet Rate Location/Type
08:56PM 35.8664 -78.8139 11° North 154 177 1,800  Level Washington Center
08:57PM 35.8494 -78.8286 215° Southwest 158 182 3,100 2,580 Climbing Washington Center
08:58PM 35.8169 -78.8683 225° Southwest 181 208 5,800 2,640 Climbing Washington Center
08:58PM 35.8533 -78.9158 313° West 235 270 8,100 2,160 Climbing Washington Center
08:59PM 35.9292 -78.8883 16° North 223 257 9,900 1,500 Climbing Washington Center
09:00PM 36.2986 -78.6171 15° North  Level FlightAware Approximate
09:00PM 36.0183 -78.8278 29° Northeast 286 329 11,200  Level Washington Center
09:01PM 36.3871 -78.5907 11° North  Level FlightAware Approximate
09:01PM 36.1203 -78.7650 26° Northeast 352 405 12,200  Level Washington Center
09:02PM 36.2244 -78.6972 28° Northeast 399 459 13,700 1,740 Climbing Washington Center
09:03PM 36.3325 -78.6292 27° Northeast 432 497 15,700 1,860 Climbing Washington Center
09:04PM 36.4464 -78.5847 17° North 432 497 17,500 1,860 Climbing Washington Center
09:05PM 36.5600 -78.5425 17° North 422 486 19,500 1,680 Climbing Washington Center
09:06PM 36.6506 -78.5097 16° North 422 486 20,900 720 Climbing Washington Center
09:07PM 36.7772 -78.4469 22° Northeast 417 480 21,000  Climbing Washington Center
09:08PM 36.8728 -78.3725 32° Northeast 399 459 21,000  Level Washington Center
09:09PM 36.9664 -78.2928 34° Northeast 399 459 21,000  Level Washington Center
09:10PM 37.0600 -78.2181 32° Northeast 399 459 21,000  Level Washington Center
09:11PM 37.1619 -78.1328 34° Northeast 411 473 21,000  Level Washington Center
09:12PM 37.2658 -78.0475 33° Northeast 425 489 21,000  Level Washington Center
09:13PM 37.3783 -77.9572 33° Northeast 456 525 21,000  Level Washington Center
09:14PM 37.4886 -77.8611 35° Northeast 470 541 21,000 -60 Level Washington Center
09:15PM 37.6089 -77.7808 28° Northeast 481 554 20,900 -1,260 Descending Washington Center
09:16PM 37.7269 -77.7106 25° Northeast 481 554 18,500 -2,460 Descending Washington Center
09:17PM 37.8428 -77.6456 24° Northeast 467 537 16,000 -2,340 Descending Washington Center
09:18PM 37.9586 -77.5775 25° Northeast 462 532 13,900 -1,980 Descending Washington Center
09:19PM 38.0575 -77.5247 23° Northeast 444 511 12,100 -1,800 Descending Washington Center
09:20PM 38.1628 -77.4589 26° Northeast 427 491 10,400 -1,080 Descending Washington Center
09:21PM 38.2597 -77.4003 25° Northeast 402 463 10,000 -1,260 Descending Washington Center
09:22PM 38.3481 -77.3575 21° North 368 423 7,900 -2,460 Descending Washington Center
09:23PM 38.4356 -77.3597 359° North 330 380 5,100 -1,980 Descending Washington Center
09:24PM 38.5081 -77.3800 348° North 285 328 4,000 -600 Descending Washington Center
09:25PM 38.5725 -77.4053 343° North 259 298 4,000  Level Washington Center
09:26PM 38.6283 -77.4306 341° North 235 270 4,000  Level Washington Center
09:27PM 38.6886 -77.4456 349° North 222 255 4,000 -480 Level Washington Center
09:28PM 38.7533 -77.4417 North 222 255 3,100 -900 Descending Washington Center